createdAt,value
2019-01-25T00:03:29.817Z,47.77
2019-01-25T00:06:10.934Z,39.03
2019-01-25T00:08:54.858Z,38.93
2019-01-25T00:11:35.514Z,40.30
2019-01-25T00:14:16.284Z,39.30
2019-01-25T00:16:56.872Z,36.63
2019-01-25T00:19:37.467Z,37.90
2019-01-25T00:22:18.151Z,41.00
2019-01-25T00:24:58.718Z,42.37
2019-01-25T00:27:39.747Z,37.50
2019-01-25T00:30:20.225Z,38.03
2019-01-25T00:33:01.173Z,38.43
2019-01-25T00:35:42.183Z,36.23
2019-01-25T00:38:22.696Z,38.00
2019-01-25T00:41:03.280Z,38.13
2019-01-25T00:43:43.784Z,37.10
2019-01-25T00:46:24.589Z,37.13
2019-01-25T00:49:04.972Z,38.10
2019-01-25T00:51:45.673Z,35.23
2019-01-25T00:54:26.865Z,35.63
2019-01-25T00:57:07.392Z,37.63
2019-01-25T00:59:48.133Z,36.97
2019-01-25T01:02:28.457Z,36.30
2019-01-25T01:05:09.233Z,36.50
2019-01-25T01:07:51.479Z,37.23
2019-01-25T01:10:31.885Z,36.77
2019-01-25T01:13:12.268Z,36.93
2019-01-25T01:15:53.495Z,34.80
2019-01-25T01:18:34.112Z,39.30
2019-01-25T01:21:14.687Z,38.77
2019-01-25T01:23:55.205Z,35.43
2019-01-25T01:26:35.660Z,39.43
2019-01-25T01:29:16.585Z,35.60
2019-01-25T01:31:57.415Z,39.17
2019-01-25T01:34:38.158Z,37.67
2019-01-25T01:37:19.096Z,37.27
2019-01-25T01:40:00.033Z,37.53
2019-01-25T01:42:40.728Z,40.63
2019-01-25T01:45:21.435Z,40.20
2019-01-25T01:48:02.325Z,34.90
2019-01-25T01:50:43.164Z,37.07
2019-01-25T01:53:24.090Z,35.70
2019-01-25T01:56:04.525Z,37.13
2019-01-25T01:58:45.142Z,38.73
2019-01-25T02:01:25.776Z,39.93
2019-01-25T02:04:06.493Z,41.13
2019-01-25T02:06:47.749Z,39.70
2019-01-25T02:09:28.192Z,43.70
2019-01-25T02:12:09.062Z,37.60
2019-01-25T02:14:49.720Z,42.67
2019-01-25T02:17:30.237Z,39.93
2019-01-25T02:20:10.564Z,40.63
2019-01-25T02:22:51.220Z,39.33
2019-01-25T02:25:31.881Z,40.63
2019-01-25T02:28:12.252Z,44.50
2019-01-25T02:30:53.189Z,35.70
2019-01-25T02:33:34.224Z,40.67
2019-01-25T02:36:15.101Z,38.93
2019-01-25T02:38:55.636Z,36.83
2019-01-25T02:41:36.165Z,38.67
2019-01-25T02:44:16.895Z,40.53
2019-01-25T02:46:57.566Z,39.63
2019-01-25T02:49:38.684Z,40.27
2019-01-25T02:52:19.069Z,39.40
2019-01-25T02:54:59.794Z,42.37
2019-01-25T02:57:40.405Z,45.63
2019-01-25T03:00:20.965Z,37.23
2019-01-25T03:03:01.694Z,36.57
2019-01-25T03:05:42.417Z,41.53
2019-01-25T03:08:22.962Z,37.53
2019-01-25T03:11:03.286Z,35.43
2019-01-25T03:13:43.831Z,42.60
2019-01-25T03:16:24.248Z,37.53
2019-01-25T03:19:05.284Z,42.07
2019-01-25T03:21:46.609Z,44.30
2019-01-25T03:24:27.425Z,42.63
2019-01-25T03:27:08.233Z,40.47
2019-01-25T03:29:48.980Z,41.17
2019-01-25T03:32:29.575Z,40.33
2019-01-25T03:35:10.179Z,40.00
2019-01-25T03:37:51.155Z,44.70
2019-01-25T03:40:31.725Z,39.07
2019-01-25T03:43:12.284Z,38.97
2019-01-25T03:45:53.204Z,38.70
2019-01-25T03:48:33.766Z,42.53
2019-01-25T03:51:14.788Z,49.63
2019-01-25T03:53:55.321Z,39.77
2019-01-25T03:56:38.098Z,47.93
2019-01-25T03:59:18.633Z,38.33
2019-01-25T04:01:59.315Z,42.77
2019-01-25T04:04:39.913Z,37.33
2019-01-25T04:07:20.423Z,51.13
2019-01-25T04:10:01.031Z,39.53
2019-01-25T04:12:41.773Z,45.47
2019-01-25T04:15:22.721Z,40.90
2019-01-25T04:18:03.589Z,41.30
2019-01-25T04:20:44.588Z,46.47
2019-01-25T04:23:25.766Z,46.30
2019-01-25T04:26:06.549Z,45.07
2019-01-25T04:28:46.756Z,41.37
2019-01-25T04:31:27.566Z,37.77
2019-01-25T04:34:08.054Z,39.73
2019-01-25T04:36:49.120Z,40.87
2019-01-25T04:39:30.381Z,42.67
2019-01-25T04:42:10.914Z,36.33
2019-01-25T04:44:51.990Z,38.03
2019-01-25T04:47:32.473Z,41.77
2019-01-25T04:50:13.488Z,49.27
2019-01-25T04:52:54.084Z,41.87
2019-01-25T04:55:34.872Z,41.87
2019-01-25T04:58:15.887Z,39.53
2019-01-25T05:00:56.198Z,42.73
2019-01-25T05:03:37.701Z,42.03
2019-01-25T05:06:18.213Z,41.30
2019-01-25T05:08:58.729Z,44.60
2019-01-25T05:11:39.039Z,37.03
2019-01-25T05:14:19.773Z,35.67
2019-01-25T05:17:00.582Z,40.60
2019-01-25T05:19:41.432Z,36.83
2019-01-25T05:22:22.457Z,41.87
2019-01-25T05:25:03.181Z,44.23
2019-01-25T05:27:43.967Z,34.70
2019-01-25T05:30:25.107Z,39.97
2019-01-25T05:33:05.483Z,39.77
2019-01-25T05:35:46.274Z,38.77
2019-01-25T05:38:27.005Z,42.50
2019-01-25T05:41:07.457Z,42.47
2019-01-25T05:43:48.494Z,43.10
2019-01-25T05:46:31.796Z,38.80
2019-01-25T05:49:12.476Z,38.03
2019-01-25T05:51:52.944Z,36.80
2019-01-25T05:54:33.664Z,34.67
2019-01-25T05:57:14.484Z,38.07
2019-01-25T05:59:55.092Z,40.40
2019-01-25T06:02:35.445Z,39.97
2019-01-25T06:05:16.200Z,40.17
2019-01-25T06:07:56.883Z,37.37
2019-01-25T06:10:37.799Z,42.57
2019-01-25T06:13:18.284Z,46.13
2019-01-25T06:15:58.942Z,39.03
2019-01-25T06:18:39.828Z,40.30
2019-01-25T06:21:20.803Z,41.20
2019-01-25T06:24:01.560Z,42.30
2019-01-25T06:26:43.583Z,42.90
2019-01-25T06:29:24.938Z,40.57
2019-01-25T06:32:05.492Z,42.40
2019-01-25T06:34:46.174Z,41.30
2019-01-25T06:37:27.230Z,42.77
2019-01-25T06:40:07.993Z,36.83
2019-01-25T06:42:49.169Z,39.57
2019-01-25T06:45:29.985Z,40.07
2019-01-25T06:48:11.021Z,41.83
2019-01-25T06:50:52.379Z,46.47
2019-01-25T06:53:33.549Z,43.23
2019-01-25T06:56:14.540Z,42.80
2019-01-25T06:58:59.521Z,40.77
2019-01-25T07:01:44.794Z,45.67
2019-01-25T07:04:25.927Z,43.67
2019-01-25T07:07:08.235Z,41.70
2019-01-25T07:09:48.426Z,43.97
2019-01-25T07:12:29.005Z,43.83
2019-01-25T07:15:09.533Z,44.13
2019-01-25T07:17:50.575Z,45.10
2019-01-25T07:20:31.170Z,41.87
2019-01-25T07:23:12.238Z,39.57
2019-01-25T07:25:52.927Z,46.70
2019-01-25T07:28:33.799Z,42.77
2019-01-25T07:31:14.917Z,47.33
2019-01-25T07:33:55.218Z,40.23
2019-01-25T07:36:36.065Z,42.53
2019-01-25T07:39:17.155Z,44.27
2019-01-25T07:41:59.599Z,39.50
2019-01-25T07:44:41.129Z,42.07
2019-01-25T07:47:22.549Z,42.63
2019-01-25T07:50:03.177Z,46.37
2019-01-25T07:52:43.857Z,46.43
2019-01-25T07:55:24.393Z,41.60
2019-01-25T07:58:05.775Z,41.73
2019-01-25T08:00:46.297Z,42.67
2019-01-25T08:03:27.460Z,42.63
2019-01-25T08:06:08.669Z,43.60
2019-01-25T08:08:50.031Z,46.27
2019-01-25T08:11:18.454Z,43.80
2019-01-25T08:14:06.469Z,46.63
2019-01-25T08:16:54.227Z,41.27
2019-01-25T08:19:42.063Z,45.80
2019-01-25T08:22:30.112Z,45.13
2019-01-25T08:25:17.918Z,47.97
2019-01-25T08:28:05.737Z,45.50
2019-01-25T08:30:53.626Z,45.80
2019-01-25T08:33:41.431Z,43.40
2019-01-25T08:36:29.212Z,50.80
2019-01-25T08:39:17.230Z,44.50
2019-01-25T08:42:05.357Z,49.17
2019-01-25T08:44:53.105Z,49.67
2019-01-25T08:47:40.870Z,49.70
2019-01-25T08:50:28.667Z,50.07
2019-01-25T08:53:16.728Z,47.93
2019-01-25T08:56:04.621Z,47.30
2019-01-25T08:58:52.431Z,49.13
2019-01-25T09:01:40.449Z,44.50
2019-01-25T09:04:28.199Z,64.73
2019-01-25T09:07:15.972Z,49.67
2019-01-25T09:09:57.150Z,43.33
2019-01-25T09:12:38.200Z,46.57
2019-01-25T09:15:19.304Z,46.77
2019-01-25T09:18:00.326Z,45.63
2019-01-25T09:20:41.109Z,39.20
2019-01-25T09:23:21.849Z,37.30
2019-01-25T09:26:02.952Z,35.50
2019-01-25T09:28:43.270Z,37.30
2019-01-25T09:31:23.865Z,44.40
2019-01-25T09:34:04.452Z,35.33
2019-01-25T09:36:45.444Z,33.13
2019-01-25T09:39:26.248Z,34.83
2019-01-25T09:42:07.236Z,33.00
2019-01-25T09:44:48.002Z,34.57
2019-01-25T09:47:28.994Z,34.00
2019-01-25T09:50:09.756Z,32.17
2019-01-25T09:52:50.649Z,35.77
2019-01-25T09:55:59.142Z,35.90
2019-01-25T09:58:47.073Z,31.87
2019-01-25T10:01:34.840Z,36.67
2019-01-25T10:04:22.609Z,40.50
2019-01-25T10:07:10.365Z,36.37
2019-01-25T10:09:58.213Z,34.03
2019-01-25T10:12:45.975Z,36.07
2019-01-25T10:15:33.724Z,41.67
2019-01-25T10:18:24.856Z,30.53
2019-01-25T10:21:11.004Z,30.00
2019-01-25T10:23:58.763Z,39.03
2019-01-25T10:26:46.513Z,34.63
2019-01-25T10:29:34.336Z,34.60
2019-01-25T10:32:22.109Z,45.10
2019-01-25T10:35:10.541Z,33.70
2019-01-25T10:37:58.557Z,34.10
2019-01-25T10:43:55.094Z,30.50
2019-01-25T10:46:42.850Z,33.63
2019-01-25T10:49:30.685Z,34.40
2019-01-25T10:51:59.141Z,34.97
2019-01-25T10:54:47.241Z,34.53
2019-01-25T10:57:28.170Z,37.87
2019-01-25T11:00:08.760Z,33.07
2019-01-25T11:02:49.654Z,46.60
2019-01-25T11:05:30.279Z,39.80
2019-01-25T11:08:11.259Z,44.33
2019-01-25T11:10:52.177Z,53.80
2019-01-25T11:13:33.105Z,46.77
2019-01-25T11:16:13.780Z,49.73
2019-01-25T11:18:54.176Z,58.03
2019-01-25T11:21:37.512Z,54.23
2019-01-25T11:24:16.801Z,46.30
2019-01-25T11:27:00.351Z,45.07
2019-01-25T11:29:40.225Z,50.23
2019-01-25T11:32:20.463Z,46.93
2019-01-25T11:35:01.252Z,51.73
2019-01-25T11:37:42.225Z,44.10
2019-01-25T11:40:23.041Z,46.17
2019-01-25T11:43:08.395Z,50.93
2019-01-25T11:45:54.397Z,52.27
2019-01-25T11:48:41.215Z,49.07
2019-01-25T11:51:29.137Z,46.10
2019-01-25T11:54:16.920Z,54.93
2019-01-25T11:57:05.571Z,46.83
2019-01-25T11:59:53.556Z,46.40
2019-01-25T12:02:41.601Z,40.97
2019-01-25T12:05:29.356Z,56.37
2019-01-25T12:08:17.139Z,45.83
2019-01-25T12:11:04.932Z,40.17
2019-01-25T12:13:52.690Z,47.53
2019-01-25T12:16:40.464Z,48.40
2019-01-25T12:19:28.484Z,51.23
2019-01-25T12:22:16.417Z,43.20
2019-01-25T12:25:24.909Z,51.87
2019-01-25T12:28:12.698Z,45.73
2019-01-25T12:31:00.468Z,41.77
2019-01-25T12:33:48.238Z,45.87
2019-01-25T12:36:36.040Z,51.97
2019-01-25T12:42:36.610Z,51.27
2019-01-25T12:45:50.092Z,45.00
2019-01-25T12:48:35.362Z,44.93
2019-01-25T12:51:23.121Z,52.83
2019-01-25T12:54:10.914Z,47.60
2019-01-25T12:56:58.713Z,48.17
2019-01-25T12:59:46.490Z,44.63
2019-01-25T13:02:34.247Z,50.30
2019-01-25T13:05:22.541Z,49.90
2019-01-25T13:08:10.343Z,60.53
2019-01-25T13:11:00.222Z,52.97
2019-01-25T13:13:31.647Z,52.57
2019-01-25T13:16:01.910Z,55.63
2019-01-25T13:18:50.002Z,61.03
2019-01-25T13:21:37.951Z,56.50
2019-01-25T13:24:25.694Z,56.20
2019-01-25T13:30:29.499Z,60.13
2019-01-25T13:33:10.467Z,60.30
2019-01-25T13:35:51.420Z,58.87
2019-01-25T13:38:32.259Z,58.37
2019-01-25T13:41:12.937Z,58.20
2019-01-25T13:43:53.471Z,61.63
2019-01-25T13:46:36.762Z,55.33
2019-01-25T13:49:17.397Z,53.17
2019-01-25T13:51:58.107Z,55.80
2019-01-25T13:54:41.978Z,55.03
2019-01-25T13:57:22.174Z,62.03
2019-01-25T14:00:03.179Z,58.37
2019-01-25T14:02:44.249Z,58.90
2019-01-25T14:05:24.849Z,54.40
2019-01-25T14:08:05.919Z,63.00
2019-01-25T14:10:49.876Z,62.03
2019-01-25T14:13:34.209Z,61.10
2019-01-25T14:16:13.624Z,61.87
2019-01-25T14:18:54.222Z,63.53
2019-01-25T14:21:34.833Z,55.60
2019-01-25T14:24:16.806Z,64.33
2019-01-25T14:26:57.219Z,61.67
2019-01-25T14:29:37.514Z,63.47
2019-01-25T14:32:18.033Z,61.93
2019-01-25T14:34:58.973Z,64.80
2019-01-25T14:37:39.960Z,64.67
2019-01-25T14:40:21.092Z,66.77
2019-01-25T14:43:02.317Z,74.20
2019-01-25T14:45:42.961Z,69.13
2019-01-25T14:48:23.772Z,70.90
2019-01-25T14:51:05.133Z,74.67
2019-01-25T14:53:33.999Z,77.80
2019-01-25T14:56:21.815Z,78.43
2019-01-25T14:59:09.945Z,79.60
2019-01-25T15:01:57.739Z,77.63
2019-01-25T15:04:45.618Z,75.80
2019-01-25T15:07:54.446Z,80.20
2019-01-25T15:10:35.317Z,77.30
2019-01-25T15:13:15.984Z,76.27
2019-01-25T15:15:56.821Z,76.93
2019-01-25T15:18:37.423Z,81.33
2019-01-25T15:21:18.415Z,78.50
2019-01-25T15:23:59.492Z,92.00
2019-01-25T15:26:40.765Z,77.97
2019-01-25T15:29:21.818Z,78.97
2019-01-25T15:32:02.391Z,78.07
2019-01-25T15:34:44.260Z,80.27
2019-01-25T15:37:12.730Z,90.33
2019-01-25T15:40:00.632Z,78.30
2019-01-25T15:42:29.076Z,77.60
2019-01-25T15:45:36.184Z,78.33
2019-01-25T15:48:24.210Z,79.17
2019-01-25T15:51:12.192Z,76.20
2019-01-25T15:54:00.298Z,82.23
2019-01-25T15:56:48.048Z,73.80
2019-01-25T15:59:35.836Z,73.53
2019-01-25T16:02:23.586Z,75.47
2019-01-25T16:10:46.244Z,60.70
2019-01-25T16:13:34.456Z,60.87
2019-01-25T16:16:02.975Z,60.60
2019-01-25T16:18:44.337Z,56.40
2019-01-25T16:21:27.970Z,57.00
2019-01-25T16:24:08.789Z,60.03
2019-01-25T16:29:34.229Z,57.23
2019-01-25T16:32:14.949Z,56.23
2019-01-25T16:34:57.441Z,50.10
2019-01-25T16:40:20.690Z,56.97
2019-01-25T16:43:01.177Z,53.53
2019-01-25T16:45:41.956Z,57.37
2019-01-25T16:48:22.724Z,54.63
2019-01-25T16:51:03.512Z,54.87
2019-01-25T16:53:44.373Z,61.67
2019-01-25T16:56:24.879Z,55.03
2019-01-25T16:59:05.668Z,59.67
2019-01-25T17:01:46.483Z,54.73
2019-01-25T17:04:14.990Z,56.83
2019-01-25T17:07:02.782Z,58.10
2019-01-25T17:09:50.932Z,58.00
2019-01-25T17:12:38.728Z,52.30
2019-01-25T17:15:26.746Z,56.90
2019-01-25T17:18:15.991Z,51.60
2019-01-25T17:21:03.964Z,59.57
2019-01-25T17:23:32.408Z,58.97
2019-01-25T17:26:20.184Z,56.37
2019-01-25T17:29:07.944Z,55.90
2019-01-25T17:31:55.688Z,56.07
2019-01-25T17:34:43.779Z,52.03
2019-01-25T17:37:31.546Z,55.00
2019-01-25T17:40:46.482Z,53.87
2019-01-25T17:43:29.790Z,52.30
2019-01-25T17:46:17.685Z,51.57
2019-01-25T17:52:00.281Z,60.37
2019-01-25T17:54:48.103Z,56.70
2019-01-25T17:57:35.875Z,51.23
2019-01-25T18:00:44.389Z,52.23
2019-01-25T18:03:32.131Z,60.60
2019-01-25T18:06:19.893Z,53.90
2019-01-25T18:09:08.074Z,50.57
2019-01-25T18:11:48.808Z,49.50
2019-01-25T18:14:29.649Z,49.53
2019-01-25T18:17:10.688Z,51.33
2019-01-25T18:19:51.576Z,57.10
2019-01-25T18:22:31.926Z,57.83
2019-01-25T18:25:12.592Z,49.53
2019-01-25T18:27:53.621Z,60.47
2019-01-25T18:30:34.742Z,50.17
2019-01-25T18:33:16.001Z,57.60
2019-01-25T18:35:56.932Z,55.23
2019-01-25T18:38:38.077Z,49.93
2019-01-25T18:41:18.428Z,54.33
2019-01-25T18:43:59.072Z,50.07
2019-01-25T18:46:40.132Z,51.27
2019-01-25T18:49:08.628Z,50.13
2019-01-25T18:51:56.385Z,49.93
2019-01-25T18:54:44.160Z,49.60
2019-01-25T18:57:32.153Z,50.63
2019-01-25T19:00:40.661Z,52.03
2019-01-25T19:03:28.407Z,53.93
2019-01-25T19:06:16.200Z,55.73
2019-01-25T19:09:24.664Z,52.97
2019-01-25T19:12:12.657Z,53.73
2019-01-25T19:14:41.160Z,57.00
2019-01-25T19:17:28.927Z,53.63
2019-01-25T19:20:17.069Z,51.70
2019-01-25T19:23:04.842Z,55.33
2019-01-25T19:25:52.617Z,55.30
2019-01-25T19:28:40.447Z,54.43
2019-01-25T19:31:28.187Z,59.20
2019-01-25T19:34:15.940Z,56.53
2019-01-25T19:37:03.739Z,55.63
2019-01-25T19:39:51.490Z,53.90
2019-01-25T19:42:39.318Z,51.60
2019-01-25T19:45:27.091Z,49.80
2019-01-25T19:48:14.864Z,48.33
2019-01-25T19:53:57.145Z,56.37
2019-01-25T19:56:44.928Z,56.70
2019-01-25T19:59:32.892Z,57.47
2019-01-25T20:02:21.042Z,52.00
2019-01-25T20:05:29.601Z,58.03
2019-01-25T20:08:17.437Z,57.97
2019-01-25T20:11:05.537Z,57.43
2019-01-25T20:13:45.892Z,55.43
2019-01-25T20:16:26.716Z,56.93
2019-01-25T20:19:08.930Z,59.27
2019-01-25T20:21:49.677Z,61.23
2019-01-25T20:24:30.791Z,58.33
2019-01-25T20:27:12.172Z,66.23
2019-01-25T20:29:52.828Z,61.37
2019-01-25T20:32:33.429Z,63.30
2019-01-25T20:35:14.478Z,63.10
2019-01-25T20:37:55.089Z,59.43
2019-01-25T20:40:35.677Z,60.60
2019-01-25T20:43:16.773Z,64.10
2019-01-25T20:45:57.959Z,72.13
2019-01-25T20:48:38.649Z,64.70
2019-01-25T20:51:19.465Z,68.23
2019-01-25T20:54:00.293Z,63.73
2019-01-25T20:56:41.444Z,66.47
2019-01-25T20:59:22.459Z,61.43
2019-01-25T21:02:03.350Z,69.50
2019-01-25T21:04:44.013Z,65.63
2019-01-25T21:07:24.656Z,64.60
2019-01-25T21:10:05.657Z,64.97
2019-01-25T21:12:46.789Z,65.60
2019-01-25T21:15:34.782Z,68.60
2019-01-25T21:18:10.190Z,64.03
2019-01-25T21:20:51.124Z,66.27
2019-01-25T21:23:31.656Z,64.20
2019-01-25T21:26:12.496Z,62.47
2019-01-25T21:28:53.124Z,64.40
2019-01-25T21:31:33.626Z,71.33
2019-01-25T21:34:14.271Z,64.70
2019-01-25T21:36:55.049Z,69.87
2019-01-25T21:39:35.722Z,67.10
2019-01-25T21:42:16.748Z,68.07
2019-01-25T21:44:57.455Z,69.67
2019-01-25T21:47:38.215Z,66.03
2019-01-25T21:50:19.159Z,66.73
2019-01-25T21:52:59.909Z,69.80
2019-01-25T21:55:41.233Z,63.37
2019-01-25T21:58:21.570Z,61.97
2019-01-25T22:01:02.239Z,69.00
2019-01-25T22:03:43.166Z,65.47
2019-01-25T22:06:24.437Z,62.40
2019-01-25T22:09:05.707Z,66.83
2019-01-25T22:11:46.362Z,62.97
2019-01-25T22:14:27.453Z,65.90
2019-01-25T22:17:08.218Z,65.60
2019-01-25T22:19:49.233Z,59.50
2019-01-25T22:22:30.281Z,68.60
2019-01-25T22:24:58.736Z,59.10
2019-01-25T22:27:47.393Z,62.03
2019-01-25T22:30:55.919Z,63.07
2019-01-25T22:33:43.678Z,63.73
2019-01-25T22:36:31.446Z,62.27
2019-01-25T22:39:19.200Z,63.87
2019-01-25T22:42:06.964Z,65.30
2019-01-25T22:44:54.768Z,58.63
2019-01-25T22:47:42.565Z,64.93
2019-01-25T22:50:51.045Z,67.17
2019-01-25T22:53:38.809Z,62.40
2019-01-25T22:56:26.685Z,61.90
2019-01-25T22:59:14.701Z,63.77
2019-01-25T23:02:02.542Z,61.63
2019-01-25T23:05:09.664Z,57.53
2019-01-25T23:07:57.433Z,61.70
2019-01-25T23:10:45.444Z,59.73
2019-01-25T23:13:26.497Z,60.53
2019-01-25T23:16:07.116Z,55.97
2019-01-25T23:18:47.985Z,58.60
2019-01-25T23:21:28.873Z,57.37
2019-01-25T23:24:09.598Z,58.30
2019-01-25T23:26:50.401Z,61.50
2019-01-25T23:29:31.451Z,61.67
2019-01-25T23:35:10.323Z,60.77
2019-01-25T23:37:50.876Z,56.57
2019-01-25T23:40:31.689Z,56.67
2019-01-25T23:43:12.380Z,54.27
2019-01-25T23:45:52.976Z,52.17
2019-01-25T23:48:33.931Z,51.10
2019-01-25T23:51:14.550Z,56.60
2019-01-25T23:53:55.579Z,50.87
2019-01-25T23:56:36.626Z,54.83
2019-01-25T23:59:17.356Z,54.30
